Time;durP1;ratioP1;P1;durP2;ratioP2;P2;SDS_P1;SDS_P2;PMS_P1;PMS_P2;Temp;Humidity;BMP_temperature;BMP_pressure;BME280_temperature;BME280_humidity;BME280_pressure;Samples;Min_cycle;Max_cycle;Signal;HPM_P1;HPM_P2
2023/10/01 00:01:40;;;;;;;26.10;15.82;;;11.30;99.90;;;;;;5019390;28;20233;-59
2023/10/01 00:04:07;;;;;;;27.02;15.30;;;11.30;99.90;;;;;;5023339;28;20396;-60
2023/10/01 00:06:34;;;;;;;25.77;14.40;;;11.30;99.90;;;;;;5018791;28;20033;-58
2023/10/01 00:09:00;;;;;;;29.30;15.40;;;11.30;99.90;;;;;;5026238;28;20036;-59
2023/10/01 00:11:27;;;;;;;27.88;16.23;;;11.30;99.90;;;;;;5016141;28;20038;-60
2023/10/01 00:13:53;;;;;;;29.77;17.30;;;11.30;99.90;;;;;;5018888;28;20589;-60
2023/10/01 00:16:18;;;;;;;34.80;20.17;;;11.10;99.90;;;;;;5013585;28;20026;-60
2023/10/01 00:18:46;;;;;;;70.88;44.35;;;11.20;99.90;;;;;;5021071;28;20413;-60
2023/10/01 00:21:12;;;;;;;63.58;43.75;;;11.10;99.90;;;;;;5015838;28;20092;-59
2023/10/01 00:23:38;;;;;;;64.10;39.53;;;11.10;99.90;;;;;;5016444;28;20037;-59
2023/10/01 00:26:04;;;;;;;55.90;32.95;;;11.10;99.90;;;;;;5020996;28;20061;-62
2023/10/01 00:28:29;;;;;;;45.17;27.88;;;11.00;99.90;;;;;;5020694;28;20108;-58
2023/10/01 00:30:57;;;;;;;39.95;24.95;;;11.10;99.90;;;;;;5019857;28;20034;-61
2023/10/01 00:33:22;;;;;;;34.80;21.02;;;11.00;99.90;;;;;;5023380;28;20021;-61
2023/10/01 00:35:48;;;;;;;32.85;18.02;;;11.00;99.90;;;;;;5021722;28;20025;-58
2023/10/01 00:38:16;;;;;;;36.17;18.75;;;11.00;99.90;;;;;;5022607;28;20449;-60
2023/10/01 00:40:44;;;;;;;36.78;19.75;;;11.00;99.90;;;;;;5025895;28;20026;-60
2023/10/01 00:43:11;;;;;;;38.25;21.73;;;10.90;99.90;;;;;;5020348;28;20057;-61
2023/10/01 00:45:36;;;;;;;35.50;20.77;;;10.90;99.90;;;;;;5028348;28;20535;-58
2023/10/01 00:48:14;;;;;;;34.97;18.10;;;10.80;99.90;;;;;;5018489;28;20045;-62
2023/10/01 00:50:41;;;;;;;27.05;14.95;;;10.90;99.90;;;;;;5025969;28;20087;-59
2023/10/01 00:53:10;;;;;;;25.60;14.55;;;10.80;99.90;;;;;;5016698;28;20108;-58
2023/10/01 00:55:37;;;;;;;26.90;13.15;;;10.80;99.90;;;;;;5025612;28;20414;-61
2023/10/01 00:58:03;;;;;;;26.20;13.15;;;10.80;99.90;;;;;;5024123;28;20400;-62
2023/10/01 01:00:28;;;;;;;24.83;12.70;;;10.80;99.90;;;;;;5027896;28;20029;-59
2023/10/01 01:02:58;;;;;;;24.30;13.73;;;10.80;99.90;;;;;;5027525;28;20025;-57
2023/10/01 01:05:37;;;;;;;29.23;14.38;;;10.80;99.90;;;;;;5030012;28;20018;-59
2023/10/01 01:08:20;;;;;;;30.30;16.20;;;10.80;99.90;;;;;;5017505;28;20396;-60
2023/10/01 01:10:49;;;;;;;23.55;13.18;;;10.70;99.90;;;;;;5019195;28;20514;-60
2023/10/01 01:13:16;;;;;;;23.30;13.38;;;10.60;99.90;;;;;;5017208;28;20417;-59
2023/10/01 01:15:46;;;;;;;25.13;12.73;;;10.60;99.90;;;;;;5025263;28;20026;-58
2023/10/01 01:18:13;;;;;;;26.85;13.43;;;10.70;99.90;;;;;;5024422;28;20033;-62
2023/10/01 01:20:45;;;;;;;30.65;13.63;;;10.70;99.90;;;;;;5024381;28;20400;-59
2023/10/01 01:23:18;;;;;;;30.15;14.65;;;10.80;99.90;;;;;;5020203;28;20034;-61
2023/10/01 01:25:44;;;;;;;28.15;14.90;;;10.70;99.90;;;;;;5022844;28;20125;-61
2023/10/01 01:28:12;;;;;;;29.27;14.70;;;10.70;99.90;;;;;;5019921;28;20104;-60
2023/10/01 01:30:42;;;;;;;20.00;12.15;;;10.70;99.90;;;;;;5023140;28;20017;-60
2023/10/01 01:33:08;;;;;;;24.13;13.75;;;10.70;99.90;;;;;;5023876;28;20053;-61
2023/10/01 01:35:35;;;;;;;25.92;13.20;;;10.70;99.90;;;;;;5021839;28;20561;-61
2023/10/01 01:38:02;;;;;;;21.35;11.80;;;10.70;99.90;;;;;;5028100;28;20408;-61
2023/10/01 01:40:36;;;;;;;26.83;14.57;;;10.60;99.90;;;;;;5021808;28;20022;-60
2023/10/01 01:43:15;;;;;;;24.02;13.93;;;10.60;99.90;;;;;;5024370;28;20157;-59
2023/10/01 01:45:43;;;;;;;31.00;14.63;;;10.70;99.90;;;;;;5015180;28;20036;-60
2023/10/01 01:48:21;;;;;;;23.80;14.02;;;10.70;99.90;;;;;;5025504;28;20022;-61
2023/10/01 01:50:48;;;;;;;24.20;13.30;;;10.70;99.90;;;;;;5021424;28;20032;-59
2023/10/01 01:53:13;;;;;;;21.58;12.60;;;10.70;99.90;;;;;;5025917;28;20035;-62
2023/10/01 01:55:41;;;;;;;26.85;13.13;;;10.70;99.90;;;;;;5023967;28;20116;-60
2023/10/01 01:58:10;;;;;;;24.10;12.98;;;10.80;99.90;;;;;;5025818;28;20060;-60
2023/10/01 02:01:01;;;;;;;22.65;12.18;;;10.80;99.90;;;;;;5020060;28;20026;-60
2023/10/01 02:03:26;;;;;;;21.15;10.68;;;10.80;99.90;;;;;;5016699;28;20026;-60
2023/10/01 02:05:52;;;;;;;20.35;11.75;;;10.70;99.90;;;;;;5019582;28;20514;-60
2023/10/01 02:08:24;;;;;;;21.55;11.38;;;10.70;99.90;;;;;;5017977;28;20071;-61
2023/10/01 02:10:52;;;;;;;20.98;10.95;;;10.70;99.90;;;;;;5020487;28;20163;-61
2023/10/01 02:13:18;;;;;;;19.73;12.07;;;10.60;99.90;;;;;;5023747;28;20059;-59
2023/10/01 02:15:47;;;;;;;30.52;14.15;;;10.50;99.90;;;;;;5026444;28;20464;-61
2023/10/01 02:18:17;;;;;;;40.03;20.92;;;10.50;99.90;;;;;;5018778;28;20042;-59
2023/10/01 02:20:51;;;;;;;54.40;29.98;;;10.40;99.90;;;;;;5024199;28;20120;-60
2023/10/01 02:23:25;;;;;;;;;;;10.30;99.90;;;;;;5017645;28;20531;-61
2023/10/01 02:25:51;;;;;;;103.45;47.60;;;10.30;99.90;;;;;;5024339;28;19920;-62
2023/10/01 02:28:17;;;;;;;57.05;27.02;;;10.20;99.90;;;;;;5021743;28;20087;-58
2023/10/01 02:30:44;;;;;;;104.68;48.60;;;10.20;99.90;;;;;;5021229;28;20033;-60
2023/10/01 02:33:19;;;;;;;82.97;38.85;;;10.30;99.90;;;;;;5015758;28;20037;-62
2023/10/01 02:35:49;;;;;;;77.03;35.25;;;10.30;99.90;;;;;;5020872;28;20030;-60
2023/10/01 02:41:07;;;;;;;43.90;18.48;;;10.30;99.90;;;;;;5020638;28;20061;-59
2023/10/01 02:43:34;;;;;;;36.17;16.98;;;10.30;99.90;;;;;;5017331;28;20029;-58
2023/10/01 02:46:11;;;;;;;43.47;23.10;;;10.30;99.90;;;;;;5018656;28;20191;-59
2023/10/01 02:48:40;;;;;;;49.30;22.80;;;10.30;99.90;;;;;;5020333;28;20423;-59
2023/10/01 02:51:15;;;;;;;83.70;32.25;;;10.30;99.90;;;;;;5021808;28;20057;-59
2023/10/01 02:54:05;;;;;;;53.92;20.27;;;10.20;99.90;;;;;;5023732;28;20392;-60
2023/10/01 02:56:37;;;;;;;30.67;16.80;;;10.30;99.90;;;;;;5018431;28;20010;-58
2023/10/01 02:59:11;;;;;;;31.42;14.38;;;10.20;99.90;;;;;;5014177;28;20045;-60
2023/10/01 03:01:38;;;;;;;;;;;10.20;99.90;;;;;;5013084;28;20083;-61
2023/10/01 03:04:10;;;;;;;27.00;13.35;;;10.20;99.90;;;;;;5022622;28;19916;-59
2023/10/01 03:06:42;;;;;;;25.45;13.93;;;10.20;99.90;;;;;;5019565;28;20038;-59
2023/10/01 03:09:22;;;;;;;39.47;16.83;;;10.20;99.90;;;;;;5023206;28;20022;-59
2023/10/01 03:11:53;;;;;;;39.85;16.80;;;10.20;99.90;;;;;;5013787;28;20428;-60
2023/10/01 03:14:25;;;;;;;23.77;13.98;;;10.20;99.90;;;;;;5023683;28;20643;-59
2023/10/01 03:16:55;;;;;;;27.73;15.00;;;10.20;99.90;;;;;;5013990;28;20021;-59
2023/10/01 03:19:28;;;;;;;24.83;14.27;;;10.10;99.90;;;;;;5021953;28;20029;-60
2023/10/01 03:24:31;;;;;;;28.60;14.93;;;10.20;99.90;;;;;;5018264;28;20040;-60
2023/10/01 03:26:59;;;;;;;29.77;15.15;;;10.20;99.90;;;;;;5030106;28;20036;-61
2023/10/01 03:29:34;;;;;;;28.65;14.40;;;10.20;99.90;;;;;;5018558;28;20095;-61
2023/10/01 03:32:48;;;;;;;22.23;12.40;;;10.20;99.90;;;;;;5022756;28;20032;-55
2023/10/01 03:34:52;;;;;;;25.38;12.77;;;10.20;99.90;;;;;;5022835;28;20034;-61
2023/10/01 03:37:19;;;;;;;21.85;12.27;;;10.20;99.90;;;;;;5024079;28;20041;-61
2023/10/01 03:39:46;;;;;;;25.58;11.82;;;10.20;99.90;;;;;;5014147;28;20076;-60
2023/10/01 03:42:13;;;;;;;24.77;13.18;;;10.30;99.90;;;;;;5022833;28;20021;-60
2023/10/01 03:47:23;;;;;;;;;;;10.30;99.90;;;;;;5025357;28;20063;-59
2023/10/01 03:49:54;;;;;;;35.08;14.85;;;10.30;99.90;;;;;;5016044;28;20359;-60
2023/10/01 03:52:22;;;;;;;31.55;13.63;;;10.30;99.90;;;;;;5018355;28;20466;-62
2023/10/01 03:54:52;;;;;;;33.13;15.50;;;10.30;99.90;;;;;;5017102;28;20068;-60
2023/10/01 03:57:18;;;;;;;33.03;15.45;;;10.30;99.90;;;;;;5025322;28;20092;-61
2023/10/01 03:59:53;;;;;;;30.27;15.77;;;10.30;99.90;;;;;;5019210;28;20480;-60
2023/10/01 04:05:21;;;;;;;35.15;15.50;;;10.30;99.90;;;;;;5036322;28;20514;-61
2023/10/01 04:07:47;;;;;;;35.08;14.05;;;10.20;99.90;;;;;;5022336;28;20033;-60
2023/10/01 04:10:14;;;;;;;25.92;12.98;;;10.20;99.90;;;;;;5032255;28;20503;-60
2023/10/01 04:12:49;;;;;;;25.85;11.90;;;10.20;99.90;;;;;;5023836;28;20037;-62
2023/10/01 04:15:27;;;;;;;31.90;13.48;;;10.20;99.90;;;;;;5022120;28;20018;-62
2023/10/01 04:18:09;;;;;;;23.02;12.18;;;10.20;99.90;;;;;;5021680;28;20041;-61
2023/10/01 04:20:36;;;;;;;25.63;13.02;;;10.30;99.90;;;;;;5024051;28;20501;-62
2023/10/01 04:23:04;;;;;;;38.70;15.55;;;10.30;99.90;;;;;;5022555;28;20875;-62
2023/10/01 04:25:36;;;;;;;37.63;15.02;;;10.20;99.90;;;;;;5033293;28;20021;-62
2023/10/01 04:28:05;;;;;;;35.90;14.70;;;10.30;99.90;;;;;;5022521;28;20074;-59
2023/10/01 04:30:37;;;;;;;29.58;13.48;;;10.20;99.90;;;;;;5024269;28;20064;-60
2023/10/01 04:33:16;;;;;;;31.42;14.55;;;10.10;99.90;;;;;;5025896;28;20093;-62
2023/10/01 04:35:55;;;;;;;30.85;13.38;;;10.10;99.90;;;;;;5024331;28;20530;-61
2023/10/01 04:38:29;;;;;;;37.13;15.25;;;10.10;99.90;;;;;;5031392;28;20049;-60
2023/10/01 04:40:57;;;;;;;26.90;14.00;;;10.10;99.90;;;;;;5017820;28;20057;-61
2023/10/01 04:43:26;;;;;;;32.72;14.63;;;10.10;99.90;;;;;;5034468;28;20044;-60
2023/10/01 04:45:52;;;;;;;40.90;18.80;;;10.10;99.90;;;;;;5021869;28;20451;-60
2023/10/01 04:48:22;;;;;;;46.42;17.08;;;10.00;99.90;;;;;;5029222;28;20400;-61
2023/10/01 04:50:55;;;;;;;35.03;16.90;;;10.10;99.90;;;;;;5021591;28;20385;-59
2023/10/01 04:53:22;;;;;;;32.10;14.20;;;10.10;99.90;;;;;;5025308;28;20056;-59
2023/10/01 04:56:00;;;;;;;28.60;14.30;;;10.10;99.90;;;;;;5019709;28;20025;-60
2023/10/01 04:58:32;;;;;;;34.45;14.25;;;10.20;99.90;;;;;;5025892;28;20071;-61
2023/10/01 05:00:58;;;;;;;31.80;14.50;;;10.20;99.90;;;;;;5023652;28;20033;-60
2023/10/01 05:03:40;;;;;;;30.58;14.15;;;10.20;99.90;;;;;;5029116;28;20498;-58
2023/10/01 05:06:11;;;;;;;31.38;14.82;;;10.20;99.90;;;;;;5028528;28;20493;-61
2023/10/01 05:08:40;;;;;;;32.92;14.55;;;10.20;99.90;;;;;;5026905;28;20038;-61
2023/10/01 05:11:10;;;;;;;35.78;14.48;;;10.20;99.90;;;;;;5017609;28;20495;-60
2023/10/01 05:13:39;;;;;;;31.55;14.63;;;10.20;99.90;;;;;;5024345;28;20026;-61
2023/10/01 05:16:06;;;;;;;41.22;16.92;;;10.20;99.90;;;;;;5019029;28;20034;-56
2023/10/01 05:18:33;;;;;;;37.35;17.88;;;10.20;99.90;;;;;;5020667;28;20404;-58
2023/10/01 05:20:59;;;;;;;40.88;18.67;;;10.20;99.90;;;;;;5032067;28;20429;-59
2023/10/01 05:23:26;;;;;;;35.80;16.38;;;10.20;99.90;;;;;;5017984;28;20045;-59
2023/10/01 05:25:52;;;;;;;47.03;18.92;;;10.30;99.90;;;;;;5028192;28;20112;-62
2023/10/01 05:28:23;;;;;;;31.55;14.70;;;10.30;99.90;;;;;;5023155;28;20280;-60
2023/10/01 05:30:57;;;;;;;35.60;16.17;;;10.20;99.90;;;;;;5021820;28;20111;-62
2023/10/01 05:33:24;;;;;;;34.20;16.55;;;10.20;99.90;;;;;;5027583;28;20026;-61
2023/10/01 05:35:54;;;;;;;38.00;16.55;;;10.20;99.90;;;;;;5029742;28;20036;-60
2023/10/01 05:38:21;;;;;;;36.28;16.88;;;10.30;99.90;;;;;;5025598;28;20037;-59
2023/10/01 05:40:52;;;;;;;35.58;15.57;;;10.30;99.90;;;;;;5028313;28;20025;-62
2023/10/01 05:43:18;;;;;;;27.70;13.45;;;10.30;99.90;;;;;;5021639;28;20025;-61
2023/10/01 05:45:50;;;;;;;28.05;13.30;;;10.30;99.90;;;;;;5020372;28;20450;-59
2023/10/01 05:48:19;;;;;;;27.20;13.35;;;10.30;99.90;;;;;;5023838;28;20083;-61
2023/10/01 05:50:46;;;;;;;31.95;14.95;;;10.30;99.90;;;;;;5026660;28;20029;-59
2023/10/01 05:53:13;;;;;;;29.35;14.20;;;10.40;99.90;;;;;;5020496;28;20475;-58
2023/10/01 05:55:39;;;;;;;33.72;15.15;;;10.40;99.90;;;;;;5019958;28;20030;-59
2023/10/01 05:58:16;;;;;;;36.65;16.48;;;10.40;99.90;;;;;;5020120;28;20391;-60
2023/10/01 06:00:56;;;;;;;34.92;16.58;;;10.50;99.90;;;;;;5023539;28;20022;-60
2023/10/01 06:03:23;;;;;;;28.38;17.02;;;10.50;99.90;;;;;;5023744;28;20476;-60
2023/10/01 06:05:58;;;;;;;36.83;17.30;;;10.50;99.90;;;;;;5021238;28;20017;-60
2023/10/01 06:08:37;;;;;;;40.92;18.63;;;10.50;99.90;;;;;;5040312;28;20068;-60
2023/10/01 06:11:09;;;;;;;57.55;28.23;;;10.50;99.90;;;;;;5019574;28;20116;-61
2023/10/01 06:13:39;;;;;;;58.72;27.00;;;10.50;99.90;;;;;;5026410;28;20018;-58
2023/10/01 06:16:13;;;;;;;49.97;26.73;;;10.60;99.90;;;;;;5018031;28;20041;-61
2023/10/01 06:18:49;;;;;;;52.30;25.77;;;10.60;99.90;;;;;;5022419;28;20498;-59
2023/10/01 06:21:17;;;;;;;41.10;17.88;;;10.70;99.90;;;;;;5012208;28;20415;-57
2023/10/01 06:23:49;;;;;;;36.95;18.33;;;10.70;99.90;;;;;;5018692;28;20163;-61
2023/10/01 06:26:33;;;;;;;43.65;21.63;;;10.70;99.90;;;;;;5019751;28;20025;-61
2023/10/01 06:29:01;;;;;;;44.95;19.35;;;10.70;99.90;;;;;;5019334;28;20049;-60
2023/10/01 06:31:27;;;;;;;54.00;25.65;;;10.80;99.90;;;;;;5015000;28;20030;-57
2023/10/01 06:33:57;;;;;;;93.68;38.90;;;10.80;99.90;;;;;;5012366;28;20041;-60
2023/10/01 06:36:23;;;;;;;92.28;40.85;;;10.80;99.90;;;;;;5020000;28;20384;-59
2023/10/01 06:38:54;;;;;;;86.32;32.13;;;10.90;99.90;;;;;;5025573;28;20025;-59
2023/10/01 06:41:25;;;;;;;66.43;29.17;;;10.90;99.90;;;;;;5022717;28;20025;-56
2023/10/01 06:43:54;;;;;;;69.05;26.42;;;11.00;99.90;;;;;;5018776;28;20113;-59
2023/10/01 06:46:30;;;;;;;66.18;25.40;;;11.00;99.90;;;;;;5018606;28;20076;-62
2023/10/01 06:48:58;;;;;;;59.38;23.00;;;11.10;99.90;;;;;;5018100;28;20022;-61
2023/10/01 06:51:25;;;;;;;50.22;18.88;;;11.10;99.90;;;;;;5024212;28;20029;-60
2023/10/01 06:54:05;;;;;;;42.67;15.98;;;11.20;99.90;;;;;;5020679;28;20025;-61
2023/10/01 06:56:33;;;;;;;32.35;16.23;;;11.20;99.90;;;;;;5017197;28;20032;-62
2023/10/01 07:01:35;;;;;;;29.52;14.70;;;11.40;99.90;;;;;;5017708;28;20295;-58
2023/10/01 07:04:02;;;;;;;32.00;13.32;;;11.50;99.90;;;;;;5020285;28;20024;-60
2023/10/01 07:06:28;;;;;;;25.75;13.93;;;11.60;99.90;;;;;;5025772;28;20017;-58
2023/10/01 07:08:55;;;;;;;28.85;14.10;;;11.70;99.90;;;;;;5023075;28;20029;-58
2023/10/01 07:11:21;;;;;;;28.75;12.52;;;11.70;99.90;;;;;;5024115;28;20045;-60
2023/10/01 07:13:48;;;;;;;26.65;12.63;;;11.80;99.90;;;;;;5016456;28;20022;-59
2023/10/01 07:16:18;;;;;;;26.38;13.48;;;11.90;99.90;;;;;;5017861;28;20033;-61
2023/10/01 07:18:44;;;;;;;28.75;13.13;;;12.00;99.90;;;;;;5022776;28;20755;-60
2023/10/01 07:21:11;;;;;;;22.35;12.95;;;12.10;99.90;;;;;;5019906;28;20492;-56
2023/10/01 07:23:38;;;;;;;27.27;13.20;;;12.20;99.90;;;;;;5035108;28;20496;-59
2023/10/01 07:26:05;;;;;;;26.40;13.07;;;12.20;99.90;;;;;;5028393;28;20033;-58
2023/10/01 07:28:31;;;;;;;29.60;13.77;;;12.30;99.90;;;;;;5016607;28;20044;-58
2023/10/01 07:31:01;;;;;;;25.38;13.70;;;12.30;99.90;;;;;;5020467;28;20022;-60
2023/10/01 07:33:31;;;;;;;29.88;13.38;;;12.40;99.90;;;;;;5022219;28;20550;-58
2023/10/01 07:35:59;;;;;;;24.13;13.13;;;12.50;99.90;;;;;;5024428;28;20053;-60
2023/10/01 07:38:26;;;;;;;21.90;12.38;;;12.60;99.90;;;;;;5020494;28;20037;-59
2023/10/01 07:40:58;;;;;;;25.88;13.35;;;12.70;99.90;;;;;;5022467;28;20105;-57
2023/10/01 07:43:29;;;;;;;24.55;12.77;;;12.80;99.90;;;;;;5021836;28;20104;-60
2023/10/01 07:45:58;;;;;;;26.27;13.48;;;12.90;99.90;;;;;;5020501;28;20395;-60
2023/10/01 07:48:27;;;;;;;23.10;11.88;;;12.90;99.90;;;;;;5026707;28;20062;-57
2023/10/01 07:50:53;;;;;;;28.77;12.38;;;13.00;99.90;;;;;;5019567;28;20712;-60
2023/10/01 07:53:19;;;;;;;30.92;12.07;;;13.10;99.90;;;;;;5033405;28;20034;-59
2023/10/01 07:55:47;;;;;;;22.73;11.60;;;13.20;99.90;;;;;;5022303;28;20087;-61
2023/10/01 07:58:23;;;;;;;24.52;10.82;;;13.30;99.90;;;;;;5017691;28;20433;-59
2023/10/01 08:00:58;;;;;;;21.05;10.27;;;13.30;99.90;;;;;;5018851;28;20032;-59
2023/10/01 08:06:05;;;;;;;25.98;11.32;;;13.50;99.90;;;;;;5021148;28;20036;-60
2023/10/01 08:08:37;;;;;;;19.95;10.15;;;13.60;99.90;;;;;;5021041;28;20021;-60
2023/10/01 08:11:55;;;;;;;22.15;10.73;;;13.70;99.90;;;;;;5025757;28;20043;-60
2023/10/01 08:13:57;;;;;;;21.63;10.50;;;13.80;99.90;;;;;;5014333;28;20083;-56
2023/10/01 08:16:24;;;;;;;18.90;9.40;;;13.80;99.90;;;;;;5028248;28;20451;-59
2023/10/01 08:18:57;;;;;;;19.55;10.27;;;13.90;99.90;;;;;;5022586;28;20057;-57
2023/10/01 08:21:36;;;;;;;16.93;9.80;;;14.00;99.90;;;;;;5025361;28;20029;-59
2023/10/01 08:24:09;;;;;;;17.73;8.48;;;14.10;99.90;;;;;;5018153;28;20571;-59
2023/10/01 08:26:49;;;;;;;19.42;8.93;;;14.20;99.90;;;;;;5025803;28;20029;-59
2023/10/01 08:29:15;;;;;;;24.95;8.65;;;14.30;99.90;;;;;;5032974;28;20025;-54
2023/10/01 08:34:24;;;;;;;17.95;8.38;;;14.50;99.90;;;;;;5022010;28;20392;-61
2023/10/01 08:36:55;;;;;;;17.60;8.60;;;14.60;99.90;;;;;;5018814;28;20101;-60
2023/10/01 08:39:33;;;;;;;18.25;7.95;;;14.80;99.90;;;;;;5019896;28;20030;-59
2023/10/01 08:42:08;;;;;;;15.50;7.53;;;15.10;99.90;;;;;;5023603;28;20558;-59
2023/10/01 08:44:47;;;;;;;17.15;8.20;;;15.20;99.90;;;;;;5022786;28;20041;-60
2023/10/01 08:47:34;;;;;;;19.50;8.02;;;15.30;99.90;;;;;;5023697;28;20080;-59
2023/10/01 08:50:17;;;;;;;17.42;7.70;;;15.50;99.90;;;;;;5029364;28;20040;-59
2023/10/01 08:52:52;;;;;;;14.75;7.88;;;15.60;99.90;;;;;;5023356;28;20526;-61
2023/10/01 08:55:21;;;;;;;23.65;8.80;;;15.70;99.90;;;;;;5027031;28;20042;-60
2023/10/01 08:57:52;;;;;;;15.45;7.68;;;15.90;99.90;;;;;;5020245;28;20025;-60
2023/10/01 09:00:20;;;;;;;19.40;8.40;;;16.00;99.90;;;;;;5027411;28;20109;-59
2023/10/01 09:03:07;;;;;;;17.50;8.23;;;16.10;99.90;;;;;;5035551;28;20143;-59
2023/10/01 09:05:34;;;;;;;19.92;8.55;;;16.20;99.90;;;;;;5027852;28;20131;-59
2023/10/01 09:08:15;;;;;;;25.65;9.75;;;16.40;99.90;;;;;;5032680;28;20030;-59
2023/10/01 09:10:51;;;;;;;23.13;8.95;;;16.50;99.90;;;;;;5024589;28;20171;-60
2023/10/01 09:13:21;;;;;;;21.27;8.60;;;16.70;99.90;;;;;;5021655;28;20026;-60
2023/10/01 09:15:47;;;;;;;22.48;9.32;;;16.90;99.90;;;;;;5026302;28;20033;-58
2023/10/01 09:18:20;;;;;;;17.40;8.13;;;17.00;99.90;;;;;;5033428;28;20174;-59
2023/10/01 09:23:56;;;;;;;17.42;7.53;;;17.30;99.90;;;;;;5012532;28;20421;-59
2023/10/01 09:26:53;;;;;;;16.98;7.47;;;17.40;99.90;;;;;;5014553;28;20033;-59
2023/10/01 09:29:23;;;;;;;17.65;8.07;;;17.60;99.90;;;;;;5023701;28;20100;-58
2023/10/01 09:31:56;;;;;;;17.75;7.38;;;17.70;99.90;;;;;;5019364;28;20033;-58
2023/10/01 09:34:36;;;;;;;17.20;7.45;;;17.90;99.90;;;;;;5024709;28;20538;-58
2023/10/01 09:37:17;;;;;;;19.10;8.18;;;18.10;99.90;;;;;;5024289;28;20025;-57
2023/10/01 09:39:43;;;;;;;18.95;7.78;;;18.20;99.90;;;;;;5021619;28;20025;-59
2023/10/01 09:42:25;;;;;;;17.38;6.93;;;18.40;99.90;;;;;;5025413;28;20060;-60
2023/10/01 09:44:55;;;;;;;19.95;7.78;;;18.60;99.90;;;;;;5022915;28;20029;-52
2023/10/01 09:47:25;;;;;;;17.83;6.72;;;18.80;99.90;;;;;;5029445;28;20030;-58
2023/10/01 09:49:54;;;;;;;18.40;7.57;;;19.00;99.90;;;;;;5021255;28;20084;-60
2023/10/01 09:52:30;;;;;;;16.38;6.78;;;19.20;99.90;;;;;;5021397;28;20021;-61
2023/10/01 09:55:29;;;;;;;16.92;7.30;;;19.30;99.90;;;;;;5023704;28;20030;-57
2023/10/01 09:57:56;;;;;;;15.05;6.88;;;19.40;99.90;;;;;;5023951;28;20113;-57
2023/10/01 10:00:39;;;;;;;17.40;7.18;;;19.60;99.90;;;;;;5019850;28;20029;-59
2023/10/01 10:03:12;;;;;;;21.67;7.75;;;19.90;99.90;;;;;;5021586;28;20033;-58
2023/10/01 10:05:42;;;;;;;21.20;7.32;;;20.00;99.90;;;;;;5028859;28;20037;-58
2023/10/01 10:08:14;;;;;;;16.70;7.43;;;20.10;99.90;;;;;;5026092;28;20506;-58
2023/10/01 10:10:52;;;;;;;17.17;6.70;;;20.30;99.90;;;;;;5030194;28;20033;-56
2023/10/01 10:13:46;;;;;;;20.70;7.10;;;20.50;99.90;;;;;;5023284;28;20088;-58
2023/10/01 10:16:32;;;;;;;22.23;7.33;;;20.80;99.90;;;;;;5023083;28;20035;-56
2023/10/01 10:19:05;;;;;;;19.23;7.57;;;20.80;99.90;;;;;;5020775;28;20041;-58
2023/10/01 10:24:45;;;;;;;21.13;8.05;;;21.10;99.90;;;;;;5029895;28;20032;-59
2023/10/01 10:27:17;;;;;;;22.80;7.32;;;21.20;99.90;;;;;;5017673;28;20415;-61
2023/10/01 10:29:57;;;;;;;18.02;7.63;;;21.40;99.90;;;;;;5024189;28;20031;-59
2023/10/01 10:32:31;;;;;;;16.67;7.25;;;21.50;99.90;;;;;;5014556;28;20034;-57
2023/10/01 10:35:05;;;;;;;18.80;7.53;;;21.60;99.90;;;;;;5021475;28;20022;-59
2023/10/01 10:37:38;;;;;;;17.92;7.45;;;21.70;99.90;;;;;;5021931;28;20021;-59
2023/10/01 10:40:12;;;;;;;23.67;8.23;;;21.80;99.90;;;;;;5015691;28;20511;-58
2023/10/01 10:42:44;;;;;;;20.05;7.30;;;22.00;99.90;;;;;;5018480;28;20445;-60
2023/10/01 10:45:21;;;;;;;24.20;7.20;;;22.10;99.90;;;;;;5013954;28;20375;-57
2023/10/01 10:47:58;;;;;;;21.85;7.35;;;22.20;99.90;;;;;;5020115;28;20088;-59
2023/10/01 10:50:46;;;;;;;17.33;7.28;;;22.20;99.90;;;;;;5019427;28;20029;-60
2023/10/01 10:53:15;;;;;;;18.95;8.07;;;22.20;99.90;;;;;;5028668;28;20487;-58
2023/10/01 10:56:06;;;;;;;19.00;8.05;;;22.20;99.90;;;;;;5016463;28;20416;-59
2023/10/01 10:58:41;;;;;;;23.75;7.78;;;22.40;99.90;;;;;;5010302;28;20496;-59
2023/10/01 11:01:20;;;;;;;18.42;7.55;;;22.60;99.90;;;;;;5012941;28;20053;-56
2023/10/01 11:03:59;;;;;;;20.23;8.07;;;22.80;99.90;;;;;;5017729;28;20034;-59
2023/10/01 11:06:42;;;;;;;19.23;7.60;;;22.90;99.90;;;;;;5020808;28;20036;-56
2023/10/01 11:09:30;;;;;;;22.55;8.73;;;23.10;99.90;;;;;;5015209;28;20080;-57
2023/10/01 11:12:01;;;;;;;20.92;7.45;;;23.20;99.90;;;;;;5013016;28;20024;-56
2023/10/01 11:14:26;;;;;;;20.85;7.97;;;23.20;99.90;;;;;;5014671;28;20092;-59
2023/10/01 11:16:52;;;;;;;21.25;7.85;;;23.40;99.90;;;;;;5026475;28;20052;-58
2023/10/01 11:19:25;;;;;;;20.10;8.27;;;23.50;99.90;;;;;;5022113;28;20637;-58
2023/10/01 11:21:59;;;;;;;21.88;7.60;;;23.60;99.90;;;;;;5026475;28;20035;-57
2023/10/01 11:24:25;;;;;;;15.07;7.15;;;23.80;99.90;;;;;;5017079;28;20183;-56
2023/10/01 11:27:22;;;;;;;23.17;8.40;;;24.00;99.90;;;;;;5025245;28;20042;-57
2023/10/01 11:30:16;;;;;;;23.05;7.93;;;24.00;99.90;;;;;;5016571;28;20506;-59
2023/10/01 11:33:12;;;;;;;20.10;8.13;;;24.20;99.90;;;;;;5021195;28;20037;-59
2023/10/01 11:35:40;;;;;;;25.02;9.27;;;24.40;99.90;;;;;;5017556;28;20080;-61
2023/10/01 11:38:10;;;;;;;20.45;8.18;;;24.80;99.90;;;;;;5017903;28;20508;-59
2023/10/01 11:43:27;;;;;;;25.52;8.82;;;25.00;99.90;;;;;;5022399;28;20035;-58
2023/10/01 11:46:24;;;;;;;21.50;8.60;;;25.10;99.90;;;;;;5016994;28;20025;-60
2023/10/01 11:48:59;;;;;;;25.90;8.93;;;25.30;99.90;;;;;;5013350;28;20516;-58
2023/10/01 11:51:38;;;;;;;22.17;8.38;;;25.50;99.90;;;;;;5016108;28;20037;-59
2023/10/01 11:54:10;;;;;;;22.85;7.95;;;25.70;99.90;;;;;;5016744;28;20025;-57
2023/10/01 11:56:47;;;;;;;22.30;8.60;;;25.50;99.90;;;;;;5013039;28;20068;-61
2023/10/01 11:59:18;;;;;;;20.80;7.88;;;25.60;99.90;;;;;;5015121;28;20440;-59
2023/10/01 12:01:52;;;;;;;23.77;9.30;;;25.70;99.90;;;;;;5016573;28;20032;-60
2023/10/01 12:04:24;;;;;;;22.60;8.07;;;26.00;99.90;;;;;;5019905;28;20114;-60
2023/10/01 12:06:56;;;;;;;22.05;10.20;;;25.90;99.90;;;;;;5028532;28;20511;-59
2023/10/01 12:09:24;;;;;;;22.67;9.38;;;25.90;99.90;;;;;;5018096;28;20094;-60
2023/10/01 12:12:03;;;;;;;26.30;9.82;;;26.10;99.90;;;;;;5015173;28;20021;-57
2023/10/01 12:14:32;;;;;;;28.20;9.27;;;26.00;99.90;;;;;;5015861;28;20166;-58
2023/10/01 12:17:01;;;;;;;21.52;9.05;;;25.60;99.90;;;;;;5018375;28;20395;-58
2023/10/01 12:19:27;;;;;;;22.42;8.93;;;26.00;99.90;;;;;;5016182;28;20433;-58
2023/10/01 12:22:09;;;;;;;28.55;9.07;;;25.80;99.90;;;;;;5017851;28;20119;-59
2023/10/01 12:24:39;;;;;;;22.23;9.95;;;26.20;99.90;;;;;;5019045;28;20025;-59
2023/10/01 12:27:11;;;;;;;23.23;9.88;;;26.20;99.90;;;;;;5024767;28;20044;-61
2023/10/01 12:29:43;;;;;;;23.95;9.40;;;26.20;99.90;;;;;;5030072;28;20017;-60
2023/10/01 12:32:12;;;;;;;25.20;9.95;;;26.50;99.90;;;;;;5023497;28;20060;-61
2023/10/01 12:34:39;;;;;;;22.80;10.13;;;26.70;99.90;;;;;;5025238;28;20022;-60
2023/10/01 12:37:32;;;;;;;24.42;10.35;;;26.60;99.90;;;;;;5029555;28;20021;-60
2023/10/01 12:39:50;;;;;;;21.52;9.52;;;26.90;99.90;;;;;;5016566;28;20472;-61
2023/10/01 12:42:16;;;;;;;21.35;10.20;;;26.80;99.90;;;;;;5025138;28;20030;-61
2023/10/01 12:44:43;;;;;;;25.55;10.38;;;26.70;99.90;;;;;;5025255;28;20056;-61
2023/10/01 12:47:15;;;;;;;23.95;9.95;;;26.70;99.90;;;;;;5024186;28;20114;-60
2023/10/01 12:49:42;;;;;;;26.98;10.18;;;26.80;99.90;;;;;;5026843;28;20096;-59
2023/10/01 12:52:09;;;;;;;20.08;9.48;;;26.90;99.90;;;;;;5029226;28;20038;-60
2023/10/01 12:54:38;;;;;;;21.98;9.65;;;26.70;99.90;;;;;;5021377;28;20117;-60
2023/10/01 12:57:18;;;;;;;22.63;10.32;;;26.90;99.90;;;;;;5024166;28;20037;-60
2023/10/01 13:00:21;;;;;;;23.77;9.57;;;27.10;99.90;;;;;;5028757;28;20388;-60
2023/10/01 13:02:42;;;;;;;23.65;10.13;;;27.40;99.90;;;;;;5029031;28;20080;-60
2023/10/01 13:05:21;;;;;;;23.17;9.82;;;27.40;99.90;;;;;;5020627;28;20021;-60
2023/10/01 13:07:48;;;;;;;25.10;11.38;;;27.40;99.90;;;;;;5021608;28;20488;-60
2023/10/01 13:10:16;;;;;;;24.98;10.15;;;27.50;99.90;;;;;;5016620;28;20034;-61
2023/10/01 13:12:59;;;;;;;26.45;10.73;;;27.50;99.90;;;;;;5019105;28;20021;-60
2023/10/01 13:15:33;;;;;;;21.52;10.07;;;27.10;99.90;;;;;;5024653;28;20021;-60
2023/10/01 13:18:00;;;;;;;29.10;10.23;;;27.40;99.90;;;;;;5025771;28;20039;-60
2023/10/01 13:20:28;;;;;;;23.40;9.70;;;27.60;99.90;;;;;;5027292;28;20044;-59
2023/10/01 13:23:06;;;;;;;26.30;9.65;;;27.80;99.90;;;;;;5033236;28;20043;-58